Time;durP1;ratioP1;P1;durP2;ratioP2;P2;SDS_P1;SDS_P2;PMS_P1;PMS_P2;Temp;Humidity;BMP_temperature;BMP_pressure;BME280_temperature;BME280_humidity;BME280_pressure;Samples;Min_cycle;Max_cycle;Signal;HPM_P1;HPM_P2
2021/06/02 00:01:18;;;;;;;2.08;1.98;;;;;;;15.83;63.17;94479.77;827704;71;32486;-80
2021/06/02 00:16:10;;;;;;;1.90;1.80;;;;;;;15.85;62.35;94468.88;834252;71;29224;-81
2021/06/02 00:31:16;;;;;;;1.40;1.40;;;;;;;15.85;61.69;94459.61;827414;71;31710;-81
2021/06/02 00:46:16;;;;;;;1.67;1.57;;;;;;;15.86;61.23;94461.17;828442;71;31696;-82
2021/06/02 01:01:10;;;;;;;1.52;1.52;;;;;;;15.87;61.13;94468.00;828197;71;29783;-81
2021/06/02 01:16:14;;;;;;;2.22;2.00;;;;;;;15.81;61.54;94479.31;835779;71;31742;-81
2021/06/02 01:31:18;;;;;;;2.20;2.10;;;;;;;15.81;61.48;94472.17;835390;71;31726;-81
2021/06/02 01:46:38;;;;;;;3.20;2.77;;;;;;;15.70;61.57;94470.95;829901;71;31516;-84
2021/06/02 02:01:29;;;;;;;2.90;2.75;;;;;;;15.65;61.97;94477.73;834086;71;32201;-82
2021/06/02 02:16:17;;;;;;;3.83;3.62;;;;;;;15.53;62.03;94475.00;824520;71;29199;-83
2021/06/02 02:31:40;;;;;;;5.05;4.65;;;;;;;15.43;62.33;94490.70;827588;71;31666;-82
2021/06/02 02:46:18;;;;;;;5.35;4.85;;;;;;;15.43;62.62;94501.28;800302;74;29390;-83
2021/06/02 03:16:11;;;;;;;6.78;6.17;;;;;;;15.40;62.72;94514.56;830011;71;28800;-80
2021/06/02 03:31:39;;;;;;;7.42;6.80;;;;;;;15.65;64.70;94529.31;827659;71;32156;-78
2021/06/02 03:46:46;;;;;;;8.43;6.22;;;;;;;17.46;61.61;94547.36;828460;71;28753;-77
2021/06/02 04:01:34;;;;;;;10.25;8.25;;;;;;;18.44;56.01;94555.86;833858;71;32301;-78
2021/06/02 04:16:13;;;;;;;10.48;9.38;;;;;;;17.91;56.43;94570.98;828303;71;29224;-77
2021/06/02 04:31:15;;;;;;;9.90;8.90;;;;;;;17.98;55.48;94587.91;834854;71;29322;-78
2021/06/02 04:46:09;;;;;;;9.33;8.43;;;;;;;16.78;57.53;94601.45;835317;71;28749;-81
2021/06/02 05:01:37;;;;;;;9.20;8.40;;;;;;;15.95;59.86;94606.11;828584;71;29301;-78
2021/06/02 05:16:43;;;;;;;10.93;9.83;;;;;;;15.36;61.59;94606.74;834697;71;29254;-78
2021/06/02 05:31:29;;;;;;;11.30;9.50;;;;;;;14.95;63.32;94619.39;827350;71;31760;-77
2021/06/02 05:46:21;;;;;;;9.65;8.18;;;;;;;14.82;64.55;94630.88;828024;71;29253;-76
2021/06/02 06:01:23;;;;;;;9.23;8.43;;;;;;;15.20;64.58;94632.89;833943;71;28746;-79
2021/06/02 06:16:38;;;;;;;8.80;7.58;;;;;;;15.90;62.26;94628.80;833976;71;31682;-76
2021/06/02 06:31:20;;;;;;;6.55;5.92;;;;;;;16.94;58.97;94628.19;827445;71;32642;-75
2021/06/02 06:46:10;;;;;;;6.25;5.65;;;;;;;19.78;52.54;94618.95;829737;71;29771;-78
2021/06/02 07:01:23;;;;;;;5.37;4.87;;;;;;;22.17;46.02;94624.73;827894;71;33241;-84
2021/06/02 07:16:13;;;;;;;4.67;4.33;;;;;;;23.58;42.10;94626.20;795185;74;31100;-84
2021/06/02 07:46:15;;;;;;;4.77;4.40;;;;;;;25.49;38.22;94612.14;827966;71;32675;-85
2021/06/02 08:01:21;;;;;;;4.40;4.10;;;;;;;25.22;36.87;94625.67;834782;71;33518;-87
2021/06/02 08:16:12;;;;;;;4.07;3.77;;;;;;;25.96;36.01;94621.06;835690;71;29690;-86
2021/06/02 08:31:34;;;;;;;4.23;3.93;;;;;;;25.86;35.56;94625.83;831753;70;32732;-82
2021/06/02 08:46:11;;;;;;;4.83;4.07;;;;;;;;;;829538;71;30353;-82
2021/06/02 09:01:56;;;;;;;4.03;3.77;;;;;;;;;;828870;71;28669;-84
2021/06/02 09:16:32;;;;;;;3.60;3.40;;;;;;;27.35;32.58;94605.83;834139;71;31762;-85
2021/06/02 09:31:39;;;;;;;3.60;3.30;;;;;;;26.85;32.19;94607.92;829324;70;32626;-83
2021/06/02 09:46:17;;;;;;;3.80;3.50;;;;;;;25.18;33.77;94616.22;828322;70;31791;-83
2021/06/02 10:01:14;;;;;;;5.77;5.27;;;;;;;23.49;36.12;94598.94;828414;71;32711;-84
2021/06/02 10:16:11;;;;;;;4.47;4.17;;;;;;;22.41;37.40;94584.82;828447;71;30182;-84
2021/06/02 10:31:18;;;;;;;8.63;5.83;;;;;;;21.87;43.57;94620.62;827656;71;32693;-85
2021/06/02 10:46:12;;;;;;;5.40;4.10;;;;;;;21.81;41.24;94612.13;828502;71;30281;-82
2021/06/02 11:01:13;;;;;;;5.47;4.13;;;;;;;21.58;43.09;94621.47;828497;71;30771;-83
2021/06/02 11:16:19;;;;;;;9.10;4.37;;;;;;;21.31;43.09;94618.67;833820;71;32455;-83
2021/06/02 11:31:31;;;;;;;5.10;4.62;;;;;;;21.32;43.54;94622.10;834255;71;33115;-82
2021/06/02 11:46:14;;;;;;;5.60;5.10;;;;;;;22.44;42.06;94618.08;834703;71;32731;-82
2021/06/02 12:01:08;;;;;;;4.57;4.27;;;;;;;22.88;40.46;94593.45;794598;74;30266;-82
2021/06/02 12:16:11;;;;;;;4.63;4.20;;;;;;;23.86;36.97;94598.15;835916;71;30693;-84
2021/06/02 12:31:12;;;;;;;5.33;4.60;;;;;;;23.05;38.30;94614.32;835574;71;30275;-79
2021/06/02 12:46:17;;;;;;;4.40;4.10;;;;;;;22.31;39.02;94614.28;794606;74;31642;-86
2021/06/02 13:01:13;;;;;;;5.00;4.33;;;;;;;21.63;38.78;94621.16;828525;71;30263;-85
2021/06/02 13:16:23;;;;;;;6.20;5.58;;;;;;;21.14;40.70;94633.77;819894;71;32721;-86
2021/06/02 13:31:17;;;;;;;4.45;4.15;;;;;;;20.89;40.15;94627.94;795359;73;32850;-83
2021/06/02 13:46:21;;;;;;;4.60;4.20;;;;;;;21.76;38.51;94631.89;828193;71;32676;-84
2021/06/02 14:01:30;;;;;;;4.87;4.43;;;;;;;21.69;39.54;94642.44;802416;71;32803;-86
2021/06/02 14:16:12;;;;;;;5.10;4.70;;;;;;;21.40;39.59;94643.23;828711;71;32504;-84
2021/06/02 14:31:14;;;;;;;4.35;4.05;;;;;;;21.34;39.47;94638.54;834480;71;32032;-84
2021/06/02 14:46:16;;;;;;;5.83;4.00;;;;;;;21.42;38.84;94640.22;827714;71;32724;-86
2021/06/02 21:16:18;;;;;;;5.35;4.95;;;;;;;17.06;50.73;94837.48;835837;70;32736;-84
2021/06/02 21:31:13;;;;;;;5.70;5.15;;;;;;;17.19;50.11;94831.95;825239;71;30296;-83
2021/06/02 21:46:14;;;;;;;5.00;4.70;;;;;;;17.33;49.72;94821.63;828539;71;31994;-82
2021/06/02 22:01:28;;;;;;;6.70;6.10;;;;;;;17.36;50.32;94813.05;822121;71;32712;-82
2021/06/02 22:16:10;;;;;;;7.35;6.65;;;;;;;17.29;51.04;94817.52;828486;71;30270;-83
2021/06/02 22:31:18;;;;;;;6.67;5.95;;;;;;;17.21;51.25;94812.52;820849;71;32765;-82
2021/06/02 22:46:08;;;;;;;5.80;5.28;;;;;;;17.13;51.05;94805.39;829530;71;29765;-82
2021/06/02 23:01:14;;;;;;;5.75;5.28;;;;;;;16.88;50.28;94771.84;829264;71;32015;-81
2021/06/02 23:16:16;;;;;;;5.45;4.95;;;;;;;17.01;50.57;94793.34;814032;71;32754;-82
2021/06/02 23:31:15;;;;;;;5.00;4.60;;;;;;;16.99;50.40;94786.27;824665;71;33229;-82
2021/06/02 23:46:12;;;;;;;5.72;5.22;;;;;;;16.91;49.51;94790.53;827048;71;32069;-85
